createdAt,value
2024-02-21T00:01:01.625Z,-4334.63
2024-02-21T00:02:04.094Z,-4333.13
2024-02-21T00:03:06.514Z,-5624.38
2024-02-21T00:04:08.920Z,-5623.34
2024-02-21T00:05:11.293Z,-5301.63
2024-02-21T00:06:13.522Z,-4979.97
2024-02-21T00:07:15.896Z,-4657.09
2024-02-21T00:08:18.356Z,-4979.69
2024-02-21T00:09:21.291Z,-5302.59
2024-02-21T00:10:23.497Z,-4656.69
2024-02-21T00:11:26.142Z,-5301.44
2024-02-21T00:12:28.520Z,-5302.19
2024-02-21T00:13:31.154Z,-4979.97
2024-02-21T00:14:33.476Z,-4334.78
2024-02-21T00:15:35.640Z,-4334.03
2024-02-21T00:16:37.880Z,-4979.44
2024-02-21T00:17:40.719Z,-4657.31
2024-02-21T00:18:43.407Z,-4334.25
2024-02-21T00:19:45.721Z,-4334.19
2024-02-21T00:20:48.077Z,-4979.44
2024-02-21T00:21:50.331Z,-4979.44
2024-02-21T00:22:52.696Z,-4656.59
2024-02-21T00:23:55.018Z,-4979.03
2024-02-21T00:24:57.407Z,-5301.13
2024-02-21T00:25:59.872Z,-5624.88
2024-02-21T00:27:02.203Z,-4656.41
2024-02-21T00:28:04.911Z,-5301.94
2024-02-21T00:29:09.170Z,-4978.69
2024-02-21T00:30:12.109Z,-5302.59
2024-02-21T00:31:14.456Z,-4657.03
2024-02-21T00:32:16.822Z,-4335.44
2024-02-21T00:33:19.329Z,-3690.88
2024-02-21T00:34:21.916Z,-3366.22
2024-02-21T00:35:24.333Z,-3688.97
2024-02-21T00:36:26.608Z,-4012.06
2024-02-21T00:37:28.913Z,-4011.97
2024-02-21T00:38:31.229Z,-4011.91
2024-02-21T00:39:33.543Z,-3367.72
2024-02-21T00:40:36.412Z,-3690.19
2024-02-21T00:41:38.767Z,-3366.81
2024-02-21T00:42:41.069Z,-3367.22
2024-02-21T00:43:43.896Z,-3689.03
2024-02-21T00:44:46.236Z,-4011.97
2024-02-21T00:45:48.543Z,-4012.03
2024-02-21T00:46:50.874Z,-3689.41
2024-02-21T00:47:53.512Z,-3366.78
2024-02-21T00:48:56.009Z,-3689.72
2024-02-21T00:49:58.264Z,-4333.94
2024-02-21T00:51:00.641Z,-4657.09
2024-02-21T00:52:02.961Z,-4656.81
2024-02-21T00:53:05.158Z,-4979.97
2024-02-21T00:54:07.505Z,-4658.59
2024-02-21T00:55:10.459Z,-3367.78
2024-02-21T00:56:12.876Z,-1753.50
2024-02-21T00:57:15.083Z,-1430.00
2024-02-21T00:58:17.370Z,-1752.94
2024-02-21T00:59:19.694Z,-2721.19
2024-02-21T01:00:21.895Z,-3044.91
2024-02-21T01:01:27.077Z,-4014.59
2024-02-21T01:02:29.577Z,-3366.81
2024-02-21T01:03:31.927Z,-3367.72
2024-02-21T01:04:35.492Z,-2721.28
2024-02-21T01:05:37.766Z,-3366.53
2024-02-21T01:06:41.073Z,-3689.31
2024-02-21T01:07:43.452Z,-3688.78
2024-02-21T01:08:45.632Z,-4656.13
2024-02-21T01:09:47.972Z,-4333.25
2024-02-21T01:10:50.335Z,-4979.78
2024-02-21T01:11:52.680Z,-3689.91
2024-02-21T01:12:54.983Z,-3043.91
2024-02-21T01:13:57.337Z,-3366.19
2024-02-21T01:14:59.666Z,-3366.78
2024-02-21T01:16:01.859Z,-3689.31
2024-02-21T01:17:04.274Z,-3689.66
2024-02-21T01:18:06.699Z,-4011.47
2024-02-21T01:19:09.716Z,-4012.13
2024-02-21T01:20:12.542Z,-4657.16
2024-02-21T01:21:14.792Z,-3689.22
2024-02-21T01:22:17.442Z,-3689.81
2024-02-21T01:23:19.687Z,-3689.13
2024-02-21T01:24:21.888Z,-3044.13
2024-02-21T01:25:24.683Z,-3367.81
2024-02-21T01:26:26.927Z,-2397.91
2024-02-21T01:27:29.191Z,-4011.06
2024-02-21T01:28:31.871Z,-4659.00
2024-02-21T01:29:34.194Z,-3367.38
2024-02-21T01:30:36.436Z,-3044.34
2024-02-21T01:31:38.880Z,-2720.03
2024-02-21T01:32:41.204Z,-4011.56
2024-02-21T01:33:43.864Z,-3044.25
2024-02-21T01:34:46.264Z,-2074.78
2024-02-21T01:35:48.793Z,-3044.09
2024-02-21T01:36:51.264Z,-2075.22
2024-02-21T01:37:53.580Z,-3043.47
2024-02-21T01:38:55.834Z,-3689.03
2024-02-21T01:39:58.054Z,-3688.66
2024-02-21T01:41:00.725Z,-4011.19
2024-02-21T01:42:03.195Z,-4010.84
2024-02-21T01:43:20.052Z,-6917.53
2024-02-21T01:44:22.336Z,-5301.44
2024-02-21T01:45:24.582Z,-4657.38
2024-02-21T01:46:31.889Z,-3689.31
2024-02-21T01:47:34.675Z,-4011.66
2024-02-21T01:48:37.040Z,-4333.34
2024-02-21T01:49:39.440Z,-4333.28
2024-02-21T01:50:41.753Z,-4334.25
2024-02-21T01:51:44.103Z,-4334.91
2024-02-21T01:52:49.963Z,-4336.50
2024-02-21T01:53:54.154Z,-3366.44
2024-02-21T01:54:56.539Z,-3688.50
2024-02-21T01:55:58.968Z,-4011.19
2024-02-21T01:57:02.140Z,-3688.88
2024-02-21T01:58:04.783Z,-4011.56
2024-02-21T01:59:07.450Z,-3366.53
2024-02-21T02:00:11.383Z,-3691.16
2024-02-21T02:01:15.857Z,-2075.66
2024-02-21T02:02:20.191Z,-2075.19
2024-02-21T02:03:22.529Z,-2075.50
2024-02-21T02:04:26.065Z,-2397.53
2024-02-21T02:05:28.411Z,-3366.09
2024-02-21T02:06:32.096Z,-4335.09
2024-02-21T02:07:34.496Z,-3688.94
2024-02-21T02:08:36.945Z,-3687.97
2024-02-21T02:09:39.483Z,-4656.75
2024-02-21T02:10:42.357Z,-4333.72
2024-02-21T02:11:44.978Z,-4010.75
2024-02-21T02:12:47.234Z,-4657.72
2024-02-21T02:13:49.451Z,-2720.38
2024-02-21T02:15:02.148Z,-5306.59
2024-02-21T02:16:05.032Z,-2721.22
2024-02-21T02:17:07.335Z,-2075.31
2024-02-21T02:18:10.732Z,-3043.91
2024-02-21T02:19:14.838Z,-2720.50
2024-02-21T02:20:18.064Z,-3365.59
2024-02-21T02:21:30.549Z,-5304.88
2024-02-21T02:22:35.703Z,-3366.50
2024-02-21T02:23:37.931Z,-3043.06
2024-02-21T02:24:40.408Z,-3688.84
2024-02-21T02:25:42.766Z,-3365.72
2024-02-21T02:26:45.004Z,-3689.19
2024-02-21T02:27:47.433Z,-3043.06
2024-02-21T02:28:49.664Z,-3688.75
2024-02-21T02:29:52.732Z,-4011.88
2024-02-21T02:30:55.636Z,-4011.47
2024-02-21T02:31:57.965Z,-3366.50
2024-02-21T02:33:00.328Z,-3688.97
2024-02-21T02:34:02.786Z,-2720.44
2024-02-21T02:35:05.561Z,-3688.94
2024-02-21T02:36:07.808Z,-3689.03
2024-02-21T02:37:10.082Z,-3688.84
2024-02-21T02:38:16.016Z,-3688.06
2024-02-21T02:39:18.477Z,-4011.66
2024-02-21T02:40:20.875Z,-3043.81
2024-02-21T02:41:23.081Z,-2398.63
2024-02-21T02:42:25.366Z,-2719.88
2024-02-21T02:43:27.587Z,-4011.41
2024-02-21T02:44:29.996Z,-3366.53
2024-02-21T02:45:33.631Z,-4335.53
2024-02-21T02:46:35.882Z,-4334.25
2024-02-21T02:47:38.197Z,-4011.88
2024-02-21T02:48:40.603Z,-3689.72
2024-02-21T02:49:43.007Z,-2074.91
2024-02-21T02:50:45.222Z,-3044.34
2024-02-21T02:51:47.369Z,-2398.06
2024-02-21T02:52:49.741Z,-3042.88
2024-02-21T02:53:52.028Z,-3365.72
2024-02-21T02:54:56.552Z,-4011.75
2024-02-21T02:55:58.982Z,-3365.72
2024-02-21T02:57:01.231Z,-3688.84
2024-02-21T02:58:03.926Z,-4979.97
2024-02-21T02:59:06.202Z,-5301.44
2024-02-21T03:00:09.953Z,-5948.00
2024-02-21T03:01:12.362Z,-6269.44
2024-02-21T03:02:14.589Z,-7558.13
2024-02-21T03:03:16.862Z,-8847.16
2024-02-21T03:04:19.304Z,-8847.34
2024-02-21T03:05:22.992Z,-10136.13
2024-02-21T03:06:25.737Z,-10137.31
2024-02-21T03:07:28.118Z,-10454.19
2024-02-21T03:08:32.253Z,-12066.13
2024-02-21T03:09:40.211Z,-11746.72
2024-02-21T03:10:42.613Z,-11744.78
2024-02-21T03:11:45.709Z,-12709.09
2024-02-21T03:12:48.445Z,-13671.78
2024-02-21T03:13:52.118Z,-14632.16
2024-02-21T03:14:54.984Z,-16244.97
2024-02-21T03:15:57.149Z,-15601.63
2024-02-21T03:16:59.888Z,-16242.72
2024-02-21T03:18:02.208Z,-16561.72
2024-02-21T03:19:04.655Z,-17207.47
2024-02-21T03:20:11.763Z,-17850.84
2024-02-21T03:21:14.913Z,-17523.53
2024-02-21T03:22:17.333Z,-18489.78
2024-02-21T03:23:19.522Z,-17849.06
2024-02-21T03:24:22.453Z,-18166.19
2024-02-21T03:25:24.766Z,-19447.72
2024-02-21T03:26:27.013Z,-19769.50
2024-02-21T03:27:29.205Z,-19447.19
2024-02-21T03:28:31.449Z,-20091.44
2024-02-21T03:29:33.650Z,-19768.25
2024-02-21T03:30:35.925Z,-20092.72
2024-02-21T03:31:38.823Z,-20413.97
2024-02-21T03:32:41.077Z,-20092.38
2024-02-21T03:33:44.617Z,-20412.66
2024-02-21T03:34:47.444Z,-20409.53
2024-02-21T03:35:49.671Z,-20411.97
2024-02-21T03:36:51.884Z,-20405.09
2024-02-21T03:37:54.655Z,-20410.47
2024-02-21T03:38:57.019Z,-20406.25
2024-02-21T03:39:59.256Z,-20406.44
2024-02-21T03:41:01.644Z,-20410.47
2024-02-21T03:42:05.948Z,-20409.00
2024-02-21T03:43:08.260Z,-20410.13
2024-02-21T03:44:10.542Z,-20407.91
2024-02-21T03:45:12.826Z,-20404.94
2024-02-21T03:46:15.758Z,-20409.94
2024-02-21T03:47:18.012Z,-20409.00
2024-02-21T03:48:20.188Z,-20406.97
2024-02-21T03:49:22.917Z,-20406.97
2024-02-21T03:50:27.177Z,-20409.19
2024-02-21T03:51:29.507Z,-20407.91
2024-02-21T03:52:31.743Z,-20408.63
2024-02-21T03:53:34.179Z,-20411.41
2024-02-21T03:54:36.430Z,-20413.06
2024-02-21T03:55:38.633Z,-20413.06
2024-02-21T03:56:41.041Z,-20414.72
2024-02-21T03:57:43.320Z,-20411.97
2024-02-21T03:58:45.581Z,-20408.63
2024-02-21T03:59:50.758Z,-20413.44
2024-02-21T04:00:53.180Z,-20412.53
2024-02-21T04:01:55.714Z,-20410.47
2024-02-21T04:02:58.110Z,-20406.44
2024-02-21T04:04:00.371Z,-20407.16
2024-02-21T04:05:02.964Z,-20406.25
2024-02-21T04:06:05.548Z,-20409.19
2024-02-21T04:07:08.042Z,-20408.28
2024-02-21T04:08:10.216Z,-20411.22
2024-02-21T04:09:12.418Z,-20408.28
2024-02-21T04:10:14.689Z,-20406.97
2024-02-21T04:11:16.985Z,-20408.28
2024-02-21T04:12:19.240Z,-20400.88
2024-02-21T04:13:21.536Z,-20402.56
2024-02-21T04:14:23.761Z,-20404.59
2024-02-21T04:15:25.955Z,-20407.34
2024-02-21T04:16:28.172Z,-20404.41
2024-02-21T04:17:30.401Z,-20403.84
2024-02-21T04:18:32.676Z,-20402.00
2024-02-21T04:19:35.707Z,-20402.91
2024-02-21T04:20:37.942Z,-20407.53
2024-02-21T04:21:40.124Z,-20400.69
2024-02-21T04:22:44.844Z,-20409.00
2024-02-21T04:23:47.078Z,-20405.88
2024-02-21T04:24:49.277Z,-20404.03
2024-02-21T04:25:51.577Z,-20403.84
2024-02-21T04:26:54.040Z,-20404.59
2024-02-21T04:27:56.232Z,-20404.75
2024-02-21T04:28:58.573Z,-20404.22
2024-02-21T04:30:00.935Z,-20402.91
2024-02-21T04:31:03.357Z,-20400.53
2024-02-21T04:32:06.182Z,-20406.25
2024-02-21T04:33:08.666Z,-20408.09
2024-02-21T04:34:10.930Z,-20407.53
2024-02-21T04:35:13.269Z,-20406.63
2024-02-21T04:36:15.870Z,-20403.84
2024-02-21T04:37:18.142Z,-20402.91
2024-02-21T04:38:20.372Z,-20403.28
2024-02-21T04:39:22.599Z,-20406.63
2024-02-21T04:40:24.800Z,-20406.44
2024-02-21T04:41:27.098Z,-20403.47
2024-02-21T04:42:29.436Z,-20405.31
2024-02-21T04:43:31.672Z,-20403.28
2024-02-21T04:44:33.846Z,-20406.63
2024-02-21T04:45:36.077Z,-20406.44
2024-02-21T04:46:38.305Z,-20404.94
2024-02-21T04:47:40.524Z,-20406.97
2024-02-21T04:48:42.764Z,-20406.63
2024-02-21T04:49:45.055Z,-20404.94
2024-02-21T04:50:47.382Z,-20404.59
2024-02-21T04:51:49.608Z,-20406.44
2024-02-21T04:52:51.835Z,-20407.16
2024-02-21T04:53:54.084Z,-20407.91
2024-02-21T04:54:56.894Z,-20404.41
2024-02-21T04:55:59.533Z,-20407.34
2024-02-21T04:57:01.859Z,-20405.31
2024-02-21T04:58:04.288Z,-20407.53
2024-02-21T04:59:06.530Z,-20406.44
2024-02-21T05:00:09.474Z,-20411.03
2024-02-21T05:01:11.742Z,-20406.81
2024-02-21T05:02:15.494Z,-20405.13
2024-02-21T05:03:17.910Z,-20404.59
2024-02-21T05:04:20.316Z,-20404.94
2024-02-21T05:05:22.780Z,-20406.63
2024-02-21T05:06:25.052Z,-20407.16
2024-02-21T05:07:27.332Z,-20403.84
2024-02-21T05:08:29.599Z,-20403.66
2024-02-21T05:09:31.924Z,-20406.81
2024-02-21T05:10:34.190Z,-20407.91
2024-02-21T05:11:37.307Z,-20408.63
2024-02-21T05:12:39.553Z,-20406.06
2024-02-21T05:13:42.355Z,-20405.31
2024-02-21T05:14:44.526Z,-20411.59
2024-02-21T05:15:46.713Z,-20410.13
2024-02-21T05:16:48.992Z,-20409.75
2024-02-21T05:17:51.333Z,-20410.47
2024-02-21T05:18:53.625Z,-20411.97
2024-02-21T05:19:55.967Z,-20409.38
2024-02-21T05:20:58.299Z,-20407.91
2024-02-21T05:22:00.532Z,-20408.63
2024-02-21T05:23:02.819Z,-20411.59
2024-02-21T05:24:05.471Z,-20408.28
2024-02-21T05:25:08.334Z,-20408.47
2024-02-21T05:26:10.591Z,-20409.00
2024-02-21T05:27:13.255Z,-20409.00
2024-02-21T05:28:15.676Z,-20410.84
2024-02-21T05:29:17.895Z,-20409.38
2024-02-21T05:30:20.142Z,-20407.16
2024-02-21T05:31:22.755Z,-20410.13
2024-02-21T05:32:25.847Z,-20409.00
2024-02-21T05:33:28.157Z,-20411.97
2024-02-21T05:34:30.647Z,-20414.53
2024-02-21T05:35:33.072Z,-20411.03
2024-02-21T05:36:35.385Z,-20413.25
2024-02-21T05:37:37.581Z,-20414.53
2024-02-21T05:38:40.166Z,-20411.78
2024-02-21T05:39:42.362Z,-20415.66
2024-02-21T05:40:46.333Z,-20411.97
2024-02-21T05:41:48.587Z,-20410.31
2024-02-21T05:42:52.854Z,-20405.50
2024-02-21T05:43:55.145Z,-20407.91
2024-02-21T05:44:57.386Z,-20407.16
2024-02-21T05:45:59.718Z,-20408.28
2024-02-21T05:47:02.050Z,-20409.75
2024-02-21T05:48:07.558Z,-20418.25
2024-02-21T05:49:09.892Z,-20408.63
2024-02-21T05:50:12.261Z,-20409.38
2024-02-21T05:51:14.516Z,-20407.91
2024-02-21T05:52:17.053Z,-20411.78
2024-02-21T05:53:19.306Z,-20411.97
2024-02-21T05:54:21.512Z,-20412.69
2024-02-21T05:55:24.379Z,-20415.09
2024-02-21T05:56:26.937Z,-20406.97
2024-02-21T05:57:29.200Z,-20409.75
2024-02-21T05:58:32.552Z,-20412.53
2024-02-21T05:59:34.782Z,-20411.97
2024-02-21T06:00:38.161Z,-20412.69
2024-02-21T06:01:40.945Z,-20411.03
2024-02-21T06:02:43.206Z,-20408.63
2024-02-21T06:03:45.494Z,-20414.19
2024-02-21T06:04:47.857Z,-20410.47
2024-02-21T06:05:50.061Z,-20410.13
2024-02-21T06:06:52.341Z,-20408.09
2024-02-21T06:07:54.593Z,-20407.53
2024-02-21T06:08:56.993Z,-20407.16
2024-02-21T06:09:59.209Z,-20407.91
2024-02-21T06:11:01.528Z,-20409.56
2024-02-21T06:12:04.276Z,-20412.34
2024-02-21T06:13:06.494Z,-20415.66
2024-02-21T06:14:08.801Z,-20412.34
2024-02-21T06:15:11.081Z,-20408.81
2024-02-21T06:16:13.346Z,-20413.06
2024-02-21T06:17:15.709Z,-20412.34
2024-02-21T06:18:19.101Z,-20416.75
2024-02-21T06:19:21.722Z,-20413.44
2024-02-21T06:20:24.085Z,-20412.69
2024-02-21T06:21:30.457Z,-20420.09
2024-02-21T06:22:32.792Z,-20411.22
2024-02-21T06:23:34.996Z,-20410.13
2024-02-21T06:24:37.653Z,-20413.06
2024-02-21T06:25:40.176Z,-20414.72
2024-02-21T06:26:42.391Z,-20414.19
2024-02-21T06:27:44.971Z,-20414.19
2024-02-21T06:28:47.977Z,-20408.28
2024-02-21T06:29:50.203Z,-20412.69
2024-02-21T06:30:52.412Z,-20411.78
2024-02-21T06:31:54.618Z,-20413.06
2024-02-21T06:32:57.412Z,-20414.19
2024-02-21T06:33:59.739Z,-20416.75
2024-02-21T06:35:03.101Z,-20413.25
2024-02-21T06:36:05.921Z,-20412.69
2024-02-21T06:37:08.150Z,-20414.19
2024-02-21T06:38:10.513Z,-20414.53
2024-02-21T06:39:12.805Z,-20417.69
2024-02-21T06:40:15.143Z,-20417.31
2024-02-21T06:41:20.768Z,-20427.66
2024-02-21T06:42:25.766Z,-20427.09
2024-02-21T06:43:28.049Z,-20420.81
2024-02-21T06:44:30.404Z,-20418.97
2024-02-21T06:45:32.692Z,-20417.50
2024-02-21T06:46:34.966Z,-20418.44
2024-02-21T06:47:37.388Z,-20418.59
2024-02-21T06:48:39.905Z,-20419.53
2024-02-21T06:49:43.376Z,-20420.81
2024-02-21T06:50:45.806Z,-20417.13
2024-02-21T06:51:47.987Z,-20416.94
2024-02-21T06:52:50.281Z,-20414.19
2024-02-21T06:53:52.598Z,-20417.31
2024-02-21T06:54:54.765Z,-20418.25
2024-02-21T06:55:57.170Z,-20417.13
2024-02-21T06:57:00.804Z,-20420.81
2024-02-21T06:58:03.052Z,-20413.81
2024-02-21T06:59:05.340Z,-20411.78
2024-02-21T07:00:11.322Z,-20416.38
2024-02-21T07:01:13.715Z,-20410.13
2024-02-21T07:02:16.058Z,-20412.53
2024-02-21T07:03:18.361Z,-20412.88
2024-02-21T07:04:20.594Z,-20416.75
2024-02-21T07:05:23.541Z,-20415.66
2024-02-21T07:06:25.872Z,-20415.09
2024-02-21T07:07:28.269Z,-20416.38
2024-02-21T07:08:30.669Z,-20416.38
2024-02-21T07:09:33.403Z,-20417.88
2024-02-21T07:10:35.821Z,-20417.13
2024-02-21T07:11:38.060Z,-20414.53
2024-02-21T07:12:44.521Z,-20415.84
2024-02-21T07:13:46.771Z,-20417.13
2024-02-21T07:14:49.074Z,-20416.22
2024-02-21T07:15:51.329Z,-20416.38
2024-02-21T07:16:53.774Z,-20417.31
2024-02-21T07:17:56.103Z,-20420.09
2024-02-21T07:18:59.381Z,-20420.28
2024-02-21T07:20:02.731Z,-20417.13
2024-02-21T07:21:05.196Z,-20415.84
2024-02-21T07:22:07.403Z,-20416.03
2024-02-21T07:23:10.010Z,-20417.88
2024-02-21T07:24:12.507Z,-20416.38
2024-02-21T07:25:14.834Z,-20409.00
2024-02-21T07:26:17.103Z,-20411.41
2024-02-21T07:27:19.276Z,-20412.69
2024-02-21T07:28:21.545Z,-20413.25
2024-02-21T07:29:23.722Z,-20413.06
2024-02-21T07:30:25.958Z,-20412.69
2024-02-21T07:31:28.233Z,-20413.06
2024-02-21T07:32:30.548Z,-20413.81
2024-02-21T07:33:33.639Z,-20411.22
2024-02-21T07:34:35.945Z,-20414.72
2024-02-21T07:35:43.156Z,-20408.63
2024-02-21T07:36:46.671Z,-20410.84
2024-02-21T07:37:48.890Z,-20411.59
2024-02-21T07:38:51.517Z,-20416.38
2024-02-21T07:39:53.865Z,-20418.97
2024-02-21T07:40:56.468Z,-20417.13
2024-02-21T07:41:58.770Z,-20413.25
2024-02-21T07:43:01.037Z,-20408.47
2024-02-21T07:44:04.575Z,-20411.22
2024-02-21T07:45:08.289Z,-20419.91
2024-02-21T07:46:10.549Z,-20411.22
2024-02-21T07:47:12.922Z,-20411.59
2024-02-21T07:48:15.346Z,-20414.72
2024-02-21T07:49:17.625Z,-20418.97
2024-02-21T07:50:20.019Z,-20418.97
2024-02-21T07:51:22.452Z,-20416.03
2024-02-21T07:52:25.799Z,-20414.53
2024-02-21T07:53:28.039Z,-20416.22
2024-02-21T07:54:30.220Z,-20420.28
2024-02-21T07:55:32.645Z,-20421.19
2024-02-21T07:56:34.989Z,-20421.38
2024-02-21T07:57:37.584Z,-20417.69
2024-02-21T07:58:39.789Z,-20418.97
2024-02-21T07:59:42.082Z,-20421.56
2024-02-21T08:00:44.360Z,-20415.66
2024-02-21T08:01:46.636Z,-20423.59
2024-02-21T08:02:51.792Z,-20427.66
2024-02-21T08:03:54.268Z,-20419.91
2024-02-21T08:04:56.583Z,-20420.81
2024-02-21T08:05:58.956Z,-20419.34
2024-02-21T08:07:03.776Z,-20416.38
2024-02-21T08:08:06.395Z,-20416.75
2024-02-21T08:09:08.741Z,-20416.75
2024-02-21T08:10:11.031Z,-20416.75
2024-02-21T08:11:13.353Z,-20420.63
2024-02-21T08:12:15.649Z,-20420.81
2024-02-21T08:13:17.859Z,-20421.00
2024-02-21T08:14:21.362Z,-20424.34
2024-02-21T08:15:26.740Z,-20427.09
2024-02-21T08:16:29.038Z,-20429.69
2024-02-21T08:17:31.374Z,-20426.75
2024-02-21T08:18:37.396Z,-20430.78
2024-02-21T08:19:39.767Z,-20423.00
2024-02-21T08:20:42.108Z,-20426.94
2024-02-21T08:21:44.426Z,-20426.75
2024-02-21T08:22:46.648Z,-20417.09
2024-02-21T08:23:52.612Z,-20422.31
2024-02-21T08:24:55.048Z,-20417.09
2024-02-21T08:25:57.707Z,-20421.38
2024-02-21T08:26:59.957Z,-20420.41
2024-02-21T08:28:02.128Z,-20421.00
2024-02-21T08:29:04.439Z,-20422.31
2024-02-21T08:30:08.886Z,-20427.09
2024-02-21T08:31:11.190Z,-20424.16
2024-02-21T08:32:13.701Z,-20423.22
2024-02-21T08:33:17.776Z,-20426.94
2024-02-21T08:34:20.256Z,-20418.94
2024-02-21T08:35:25.685Z,-20421.16
2024-02-21T08:36:28.075Z,-20422.47
2024-02-21T08:37:30.309Z,-20417.84
2024-02-21T08:38:32.701Z,-20415.63
2024-02-21T08:39:34.935Z,-20420.41
2024-02-21T08:40:38.097Z,-20419.31
2024-02-21T08:41:51.405Z,-20424.47
2024-02-21T08:42:59.179Z,-20102.00
2024-02-21T08:44:01.861Z,-19779.19
2024-02-21T08:45:04.892Z,-20102.38
2024-02-21T08:46:07.309Z,-19778.81
2024-02-21T08:47:11.250Z,-20103.84
2024-02-21T08:48:13.644Z,-19786.00
2024-02-21T08:49:16.117Z,-18498.91
2024-02-21T08:50:24.002Z,-19144.41
2024-02-21T08:51:30.761Z,-18500.75
2024-02-21T08:52:33.145Z,-18823.72
2024-02-21T08:53:35.381Z,-18179.34
2024-02-21T08:54:37.655Z,-17857.41
2024-02-21T08:55:39.892Z,-17532.41
2024-02-21T08:56:42.483Z,-17209.69
2024-02-21T08:57:44.792Z,-16885.13
2024-02-21T08:58:48.037Z,-17531.09
2024-02-21T08:59:50.289Z,-17854.47
2024-02-21T09:00:52.558Z,-17210.31
2024-02-21T09:01:54.931Z,-16562.31
2024-02-21T09:02:57.622Z,-16885.13
2024-02-21T09:04:00.007Z,-16885.13
2024-02-21T09:05:02.384Z,-16883.25
2024-02-21T09:06:08.808Z,-19789.94
2024-02-21T09:07:12.078Z,-16891.06
2024-02-21T09:08:14.607Z,-15924.50
2024-02-21T09:09:16.844Z,-15926.41
2024-02-21T09:10:19.188Z,-15282.03
2024-02-21T09:11:21.505Z,-15603.06
2024-02-21T09:12:23.911Z,-15605.41
2024-02-21T09:13:26.242Z,-15277.03
2024-02-21T09:14:29.216Z,-16244.38
2024-02-21T09:15:34.701Z,-15920.03
2024-02-21T09:16:37.295Z,-15921.69
2024-02-21T09:17:40.492Z,-15600.75
2024-02-21T09:18:43.542Z,-16242.56
2024-02-21T09:19:46.037Z,-16243.16
2024-02-21T09:20:48.866Z,-15599.44
2024-02-21T09:21:51.147Z,-15601.31
2024-02-21T09:22:54.012Z,-15283.47
2024-02-21T09:23:59.788Z,-15284.63
2024-02-21T09:25:04.697Z,-14640.41
2024-02-21T09:26:07.209Z,-14640.69
2024-02-21T09:27:09.866Z,-13994.56
2024-02-21T09:28:12.151Z,-13991.13
2024-02-21T09:29:14.509Z,-13989.66
2024-02-21T09:30:17.058Z,-15281.03
2024-02-21T09:31:19.511Z,-14638.06
2024-02-21T09:32:21.816Z,-14637.38
2024-02-21T09:33:30.849Z,-14640.41
2024-02-21T09:34:35.298Z,-14316.25
2024-02-21T09:35:38.078Z,-14643.03
2024-02-21T09:36:41.605Z,-13674.13
2024-02-21T09:37:44.037Z,-14316.66
2024-02-21T09:38:46.229Z,-14961.81
2024-02-21T09:39:49.071Z,-14641.78
2024-02-21T09:41:04.982Z,-16255.38
2024-02-21T09:42:12.057Z,-14318.97
2024-02-21T09:43:18.981Z,-14639.03
2024-02-21T09:44:21.675Z,-14311.13
2024-02-21T09:45:25.398Z,-15923.47
2024-02-21T09:46:58.965Z,-16575.34
2024-02-21T09:48:35.810Z,-15612.38
2024-02-21T09:49:39.466Z,-13029.69
2024-02-21T09:50:44.367Z,-13673.34
2024-02-21T09:51:50.485Z,-14322.34
2024-02-21T09:52:54.082Z,-12705.19
2024-02-21T09:54:06.859Z,-13679.19
2024-02-21T09:55:17.626Z,-12387.81
2024-02-21T09:56:19.922Z,-12706.66
2024-02-21T09:57:24.173Z,-14001.97
2024-02-21T09:58:28.665Z,-12709.94
2024-02-21T09:59:33.618Z,-13674.91
2024-02-21T10:00:38.695Z,-14641.78
2024-02-21T10:01:41.159Z,-13027.81
2024-02-21T10:02:43.514Z,-13351.84
2024-02-21T10:03:46.006Z,-12709.56
2024-02-21T10:04:48.357Z,-12062.63
2024-02-21T10:05:53.691Z,-11744.44
2024-02-21T10:06:56.106Z,-11741.25
2024-02-21T10:07:58.465Z,-12387.47
2024-02-21T10:09:01.143Z,-11744.44
2024-02-21T10:10:04.544Z,-12386.25
2024-02-21T10:11:07.015Z,-12062.41
2024-02-21T10:12:11.407Z,-12389.13
2024-02-21T10:13:28.268Z,-13680.09
2024-02-21T10:14:30.702Z,-11098.16
2024-02-21T10:15:33.085Z,-11744.09
2024-02-21T10:16:35.716Z,-11421.13
2024-02-21T10:17:38.167Z,-11096.97
2024-02-21T10:18:40.884Z,-11741.91
2024-02-21T10:19:43.257Z,-11421.78
2024-02-21T10:20:46.229Z,-10781.09
2024-02-21T10:22:08.948Z,-12398.06
2024-02-21T10:23:12.016Z,-10137.31
2024-02-21T10:24:14.307Z,-9814.34
2024-02-21T10:25:16.619Z,-9490.63
2024-02-21T10:26:20.939Z,-10137.63
2024-02-21T10:27:24.838Z,-10138.03
2024-02-21T10:28:27.288Z,-9491.50
2024-02-21T10:29:29.526Z,-9172.44
2024-02-21T10:30:31.875Z,-8528.56
2024-02-21T10:31:34.703Z,-7236.59
2024-02-21T10:32:37.131Z,-7557.16
2024-02-21T10:33:39.619Z,-9170.03
2024-02-21T10:34:44.436Z,-10140.53
2024-02-21T10:35:48.311Z,-8527.44
2024-02-21T10:37:01.512Z,-9817.50
2024-02-21T10:38:04.879Z,-8523.13
2024-02-21T10:39:07.159Z,-8847.16
2024-02-21T10:40:09.919Z,-8526.22
2024-02-21T10:41:15.197Z,-8849.84
2024-02-21T10:42:22.355Z,-8526.81
2024-02-21T10:43:24.743Z,-7237.59
2024-02-21T10:44:30.601Z,-8207.53
2024-02-21T10:45:35.894Z,-7565.06
2024-02-21T10:46:40.083Z,-5305.56
2024-02-21T10:47:49.805Z,-5305.25
2024-02-21T10:49:26.586Z,-5633.06
2024-02-21T10:50:33.363Z,-3370.78
2024-02-21T10:51:38.590Z,-2401.75
2024-02-21T10:52:52.772Z,-785.88
2024-02-21T10:54:10.870Z,-2402.78
2024-02-21T10:55:34.138Z,506.91
2024-02-21T10:56:39.493Z,2124.69
2024-02-21T10:57:43.197Z,3420.03
2024-02-21T10:58:47.068Z,8932.28
2024-02-21T10:59:50.073Z,14776.56
2024-02-21T11:00:52.954Z,14451.44
2024-02-21T11:01:58.897Z,15108.47
2024-02-21T11:03:02.444Z,20323.56
2024-02-21T11:04:09.806Z,27177.00
2024-02-21T11:05:13.193Z,33047.63
2024-02-21T11:06:17.395Z,31744.25
2024-02-21T11:07:20.757Z,32402.00
2024-02-21T11:08:23.304Z,39261.13
2024-02-21T11:09:35.294Z,42241.53
2024-02-21T11:10:38.083Z,45181.84
2024-02-21T11:11:43.011Z,49804.16
2024-02-21T11:12:45.601Z,57708.09
2024-02-21T11:13:47.976Z,59004.91
2024-02-21T11:14:50.320Z,64252.31
2024-02-21T11:15:52.590Z,61298.84
2024-02-21T11:16:57.230Z,58677.50
2024-02-21T11:18:01.889Z,61002.81
2024-02-21T11:19:08.880Z,69242.09
2024-02-21T11:20:15.027Z,65585.97
2024-02-21T11:21:17.408Z,60301.22
2024-02-21T11:22:26.135Z,57998.88
2024-02-21T11:23:28.956Z,66232.91
2024-02-21T11:24:35.485Z,64577.81
2024-02-21T11:25:37.984Z,63895.34
2024-02-21T11:26:44.862Z,62592.84
2024-02-21T11:27:47.913Z,60273.53
2024-02-21T11:29:01.183Z,58977.88
2024-02-21T11:30:06.123Z,58960.13
2024-02-21T11:31:17.486Z,54365.19
2024-02-21T11:32:21.784Z,55350.94
2024-02-21T11:33:25.117Z,62222.50
2024-02-21T11:34:27.632Z,60582.00
2024-02-21T11:35:37.119Z,56308.91
2024-02-21T11:36:53.765Z,54330.91
2024-02-21T11:37:56.047Z,52022.50
2024-02-21T11:39:08.728Z,46789.22
2024-02-21T11:40:12.425Z,47760.25
2024-02-21T11:41:17.008Z,49398.44
2024-02-21T11:42:19.457Z,52004.47
2024-02-21T11:43:21.894Z,45757.72
2024-02-21T11:44:24.432Z,43806.56
2024-02-21T11:45:28.424Z,43813.38
2024-02-21T11:46:30.779Z,41523.94
2024-02-21T11:47:33.049Z,43164.63
2024-02-21T11:48:35.721Z,43175.06
2024-02-21T11:49:42.407Z,43829.44
2024-02-21T11:50:54.129Z,50373.84
2024-02-21T11:52:05.436Z,48065.56
2024-02-21T11:53:07.998Z,51019.13
2024-02-21T11:54:12.303Z,50392.84
2024-02-21T11:55:14.503Z,55312.09
2024-02-21T11:56:16.741Z,55623.94
2024-02-21T11:57:19.690Z,53342.28
2024-02-21T11:58:21.997Z,57940.69
2024-02-21T11:59:24.277Z,57279.19
2024-02-21T12:00:27.273Z,56630.41
2024-02-21T12:01:29.703Z,60914.44
2024-02-21T12:02:32.078Z,68154.94
2024-02-21T12:03:36.818Z,64526.53
2024-02-21T12:04:39.376Z,67800.50
2024-02-21T12:05:42.696Z,66806.84
2024-02-21T12:06:46.561Z,64510.63
2024-02-21T12:07:49.009Z,68108.28
2024-02-21T12:08:51.324Z,67112.75
2024-02-21T12:09:53.710Z,62843.38
2024-02-21T12:10:56.982Z,65143.75
2024-02-21T12:12:01.747Z,60879.19